Time;durP1;ratioP1;P1;durP2;ratioP2;P2;SDS_P1;SDS_P2;PMS_P1;PMS_P2;Temp;Humidity;BMP_temperature;BMP_pressure;BME280_temperature;BME280_humidity;BME280_pressure;Samples;Min_cycle;Max_cycle;Signal;HPM_P1;HPM_P2
2023/05/08 00:00:16;;;;;;;2.47;2.27;;;;;;;14.15;100.00;101928.44;5091192;28;20110;-85
2023/05/08 00:02:41;;;;;;;2.20;2.10;;;;;;;14.18;100.00;101938.88;5092643;28;20032;-86
2023/05/08 00:05:07;;;;;;;2.10;2.00;;;;;;;14.19;100.00;101943.16;5092865;28;20054;-86
2023/05/08 00:07:32;;;;;;;2.60;2.23;;;;;;;14.14;100.00;101934.56;5092694;28;20536;-86
2023/05/08 00:09:58;;;;;;;2.43;2.23;;;;;;;14.13;100.00;101948.50;5092769;28;20020;-85
2023/05/08 00:12:23;;;;;;;2.70;2.50;;;;;;;14.14;100.00;101945.00;5093000;28;20016;-86
2023/05/08 00:14:48;;;;;;;3.07;2.60;;;;;;;14.11;100.00;101955.47;5093220;28;20116;-86
2023/05/08 00:17:14;;;;;;;2.70;2.50;;;;;;;14.12;100.00;101950.25;5092773;28;20067;-86
2023/05/08 00:19:39;;;;;;;2.60;2.40;;;;;;;14.11;100.00;101952.84;5093008;28;20384;-85
2023/05/08 00:22:04;;;;;;;2.47;2.27;;;;;;;14.12;100.00;101945.03;5093362;28;20055;-86
2023/05/08 00:24:30;;;;;;;2.20;2.10;;;;;;;14.09;100.00;101936.34;5091967;28;20031;-86
2023/05/08 00:26:55;;;;;;;2.67;2.10;;;;;;;14.12;100.00;101944.16;5089513;28;20103;-86
2023/05/08 00:29:26;;;;;;;2.40;2.20;;;;;;;14.11;100.00;101943.28;5092504;28;20094;-86
2023/05/08 00:31:51;;;;;;;2.40;2.20;;;;;;;14.11;100.00;101942.41;5092965;28;20025;-86
2023/05/08 00:34:16;;;;;;;2.40;2.20;;;;;;;14.05;100.00;101933.78;5093015;28;20023;-86
2023/05/08 00:36:47;;;;;;;2.40;2.20;;;;;;;14.03;100.00;101935.56;5092711;28;20475;-86
2023/05/08 00:39:13;;;;;;;2.60;2.40;;;;;;;14.01;100.00;101933.84;5091994;28;20476;-86
2023/05/08 00:41:38;;;;;;;2.30;2.17;;;;;;;14.00;100.00;101929.50;5092950;28;20055;-86
2023/05/08 00:44:07;;;;;;;2.50;2.30;;;;;;;14.01;100.00;101933.84;5092777;28;20031;-86
2023/05/08 00:46:32;;;;;;;2.47;2.28;;;;;;;14.07;100.00;101940.75;5091834;28;20039;-86
2023/05/08 00:48:59;;;;;;;3.17;2.43;;;;;;;14.00;100.00;101929.50;5092604;28;20024;-86
2023/05/08 00:51:27;;;;;;;2.50;2.30;;;;;;;13.97;100.00;101929.53;5092986;28;20024;-85
2023/05/08 00:53:53;;;;;;;2.83;2.40;;;;;;;14.01;100.00;101931.25;5089746;28;20468;-86
2023/05/08 00:56:20;;;;;;;2.50;2.30;;;;;;;13.98;100.00;101929.50;5088974;28;20029;-86
2023/05/08 00:58:46;;;;;;;2.55;2.35;;;;;;;14.03;100.00;101935.56;5092291;28;20036;-86
2023/05/08 01:01:12;;;;;;;2.55;2.35;;;;;;;13.96;100.00;101923.44;5092053;28;20028;-86
2023/05/08 01:03:38;;;;;;;3.43;2.73;;;;;;;14.00;100.00;101932.97;5094830;28;20099;-86
2023/05/08 01:06:05;;;;;;;2.50;2.30;;;;;;;14.01;100.00;101934.69;5096931;28;20039;-86
2023/05/08 01:08:30;;;;;;;3.08;2.58;;;;;;;14.02;100.00;101936.44;5095783;28;20099;-86
2023/05/08 01:11:14;;;;;;;2.60;2.40;;;;;;;14.01;100.00;101937.31;5096899;28;20106;-86
2023/05/08 01:13:57;;;;;;;2.70;2.50;;;;;;;13.98;100.00;101929.50;5094282;28;20357;-86
2023/05/08 01:16:38;;;;;;;2.90;2.60;;;;;;;13.99;100.00;101936.47;5093400;28;20471;-86
2023/05/08 01:19:15;;;;;;;3.03;2.60;;;;;;;13.98;100.00;101929.50;5096665;28;20055;-86
2023/05/08 01:22:07;;;;;;;2.53;2.33;;;;;;;13.96;100.00;101931.28;5095508;28;20125;-86
2023/05/08 01:25:07;;;;;;;2.65;2.45;;;;;;;13.94;100.00;101922.63;5096454;28;20052;-86
2023/05/08 01:27:51;;;;;;;2.75;2.45;;;;;;;13.94;100.00;101930.44;5091154;28;20118;-86
2023/05/08 01:30:35;;;;;;;2.70;2.50;;;;;;;13.94;100.00;101926.97;5093003;28;20074;-86
2023/05/08 01:33:40;;;;;;;2.72;2.40;;;;;;;13.93;100.00;101926.13;5096252;28;20395;-86
2023/05/08 01:36:17;;;;;;;3.00;2.70;;;;;;;13.90;100.00;101927.00;5073269;28;20042;-86
2023/05/08 01:38:53;;;;;;;2.85;2.50;;;;;;;13.88;100.00;101927.91;5095988;28;20051;-86
2023/05/08 01:41:26;;;;;;;2.90;2.60;;;;;;;13.87;100.00;101928.78;5095981;28;20020;-86
2023/05/08 01:44:03;;;;;;;2.60;2.40;;;;;;;13.90;100.00;101928.75;5096264;28;20036;-86
2023/05/08 01:46:31;;;;;;;2.67;2.47;;;;;;;13.89;100.00;101932.25;5095972;28;20107;-85
2023/05/08 01:49:09;;;;;;;2.70;2.50;;;;;;;13.87;100.00;101926.16;5094427;28;20414;-85
2023/05/08 01:52:01;;;;;;;2.60;2.40;;;;;;;13.86;100.00;101929.66;5095754;28;20472;-86
2023/05/08 01:54:31;;;;;;;2.60;2.40;;;;;;;13.87;100.00;101932.28;5093225;28;20043;-86
2023/05/08 01:57:00;;;;;;;2.67;2.47;;;;;;;13.86;100.00;101935.75;5094931;28;20020;-85
2023/05/08 01:59:28;;;;;;;2.83;2.53;;;;;;;13.86;100.00;101929.66;5093795;28;20085;-86
2023/05/08 02:01:57;;;;;;;2.47;2.28;;;;;;;13.85;100.00;101938.38;5095913;28;20043;-86
2023/05/08 02:04:24;;;;;;;2.60;2.40;;;;;;;13.85;100.00;101940.97;5094642;28;20456;-86
2023/05/08 02:06:50;;;;;;;3.28;2.50;;;;;;;13.83;100.00;101938.38;5095894;28;20099;-86
2023/05/08 02:09:18;;;;;;;2.50;2.30;;;;;;;13.84;100.00;101939.28;5095297;28;20502;-86
2023/05/08 02:11:44;;;;;;;2.60;2.25;;;;;;;13.79;100.00;101935.84;5094591;28;20077;-85
2023/05/08 02:14:11;;;;;;;;;;;;;;;13.83;100.00;101946.22;5095022;28;20035;-86
2023/05/08 02:16:41;;;;;;;3.25;2.72;;;;;;;13.83;100.00;101945.38;5094275;28;19912;-86
2023/05/08 02:19:10;;;;;;;2.78;2.55;;;;;;;13.77;100.00;101934.97;5092586;28;20031;-86
2023/05/08 02:21:37;;;;;;;2.63;2.30;;;;;;;13.78;100.00;101944.53;5095386;28;20431;-86
2023/05/08 02:24:04;;;;;;;2.30;2.10;;;;;;;13.75;100.00;101938.47;5094502;28;20172;-86
2023/05/08 02:26:30;;;;;;;;;;;;;;;13.78;100.00;101940.22;5095532;28;20035;-85
2023/05/08 02:28:57;;;;;;;2.65;2.45;;;;;;;13.69;100.00;101933.34;5095596;28;19919;-86
2023/05/08 02:31:32;;;;;;;2.78;2.58;;;;;;;13.76;100.00;101944.56;5094086;28;20475;-85
2023/05/08 02:33:59;;;;;;;3.45;2.55;;;;;;;13.75;100.00;101941.09;5095008;28;20491;-86
2023/05/08 02:36:27;;;;;;;2.97;2.67;;;;;;;13.71;100.00;101935.91;5094614;28;20028;-85
2023/05/08 02:38:57;;;;;;;2.70;2.50;;;;;;;13.77;100.00;101948.91;5094549;28;20024;-86
2023/05/08 02:41:32;;;;;;;2.88;2.60;;;;;;;13.77;100.00;101948.03;5094775;28;20548;-87
2023/05/08 02:43:58;;;;;;;2.97;2.67;;;;;;;13.75;100.00;101948.91;5090206;28;20028;-86
2023/05/08 02:46:34;;;;;;;3.47;2.77;;;;;;;13.74;100.00;101947.19;5093633;28;20384;-86
2023/05/08 02:49:11;;;;;;;3.17;2.78;;;;;;;13.77;100.00;101948.03;5094970;28;20431;-86
2023/05/08 02:51:54;;;;;;;2.92;2.53;;;;;;;13.75;100.00;101948.06;5094864;28;20024;-86
2023/05/08 02:54:35;;;;;;;3.53;2.80;;;;;;;13.73;100.00;101942.88;5094576;28;20028;-86
2023/05/08 02:57:21;;;;;;;2.92;2.63;;;;;;;13.75;100.00;101942.84;5092953;28;20060;-85
2023/05/08 03:00:21;;;;;;;3.47;3.00;;;;;;;13.76;100.00;101944.56;5094259;28;20431;-86
2023/05/08 03:02:56;;;;;;;3.60;2.85;;;;;;;13.76;100.00;101944.56;5062801;28;20043;-86
2023/05/08 03:05:33;;;;;;;3.83;2.90;;;;;;;13.74;100.00;101936.75;5094410;28;20020;-86
2023/05/08 03:08:05;;;;;;;3.28;2.80;;;;;;;13.73;100.00;101945.47;5095101;28;20384;-87
2023/05/08 03:10:35;;;;;;;4.70;3.17;;;;;;;13.71;100.00;101941.13;5095098;28;20127;-86
2023/05/08 03:13:09;;;;;;;3.15;2.80;;;;;;;13.72;100.00;101945.47;5089847;28;20024;-86
2023/05/08 03:15:45;;;;;;;3.50;2.90;;;;;;;13.71;100.00;101946.34;5093148;28;20119;-86
2023/05/08 03:18:15;;;;;;;3.63;2.92;;;;;;;13.68;100.00;101936.81;5094356;28;20078;-86
2023/05/08 03:20:45;;;;;;;3.70;2.95;;;;;;;13.66;100.00;101938.56;5093217;28;20178;-86
2023/05/08 03:23:12;;;;;;;3.30;2.78;;;;;;;13.66;100.00;101943.78;5094338;28;20023;-86
2023/05/08 03:25:41;;;;;;;4.18;3.15;;;;;;;13.63;100.00;101932.53;5093558;28;20107;-86
2023/05/08 03:28:09;;;;;;;3.05;2.70;;;;;;;13.68;100.00;101938.59;5093153;28;20114;-86
2023/05/08 03:30:36;;;;;;;3.05;2.75;;;;;;;13.58;100.00;101927.38;5093822;28;20023;-86
2023/05/08 03:33:04;;;;;;;3.08;2.70;;;;;;;13.60;100.00;101928.22;5094109;28;20367;-86
2023/05/08 03:35:31;;;;;;;3.05;2.75;;;;;;;13.62;100.00;101938.63;5093212;28;20077;-86
2023/05/08 03:37:57;;;;;;;2.67;2.47;;;;;;;13.61;100.00;101934.28;5094054;28;20379;-86
2023/05/08 03:40:23;;;;;;;3.00;2.70;;;;;;;13.56;100.00;101926.50;5093671;28;20516;-86
2023/05/08 03:42:49;;;;;;;3.43;3.00;;;;;;;13.57;100.00;101933.47;5092961;28;20024;-86
2023/05/08 03:45:15;;;;;;;3.38;2.75;;;;;;;13.62;100.00;101926.47;5088751;28;20070;-86
2023/05/08 03:47:42;;;;;;;4.07;3.10;;;;;;;13.59;100.00;101931.72;5093570;28;20058;-87
2023/05/08 03:50:07;;;;;;;;;;;;;;;13.58;100.00;101930.81;5093569;28;20024;-87
2023/05/08 03:52:33;;;;;;;4.20;3.23;;;;;;;13.56;100.00;101923.91;5093305;28;19955;-86
2023/05/08 03:55:00;;;;;;;3.23;2.93;;;;;;;13.51;100.00;101925.72;5093502;28;20035;-85
2023/05/08 03:57:26;;;;;;;;;;;;;;;13.51;100.00;101931.78;5093145;28;20048;-86
2023/05/08 04:00:27;;;;;;;4.60;3.00;;;;;;;13.49;100.00;101935.28;5093560;28;19912;-86
2023/05/08 04:03:15;;;;;;;4.35;3.25;;;;;;;13.43;100.00;101936.22;5049535;28;20035;-86
2023/05/08 04:06:05;;;;;;;3.97;3.20;;;;;;;13.37;100.00;101923.19;5093120;28;20028;-86
2023/05/08 04:08:38;;;;;;;4.07;3.15;;;;;;;13.35;100.00;101923.22;5092296;28;20044;-86
2023/05/08 04:11:21;;;;;;;3.30;2.78;;;;;;;13.36;100.00;101931.88;5092597;28;20058;-86
2023/05/08 04:13:56;;;;;;;3.63;3.00;;;;;;;13.34;100.00;101933.66;5065126;28;20033;-87
2023/05/08 04:16:27;;;;;;;3.70;3.10;;;;;;;13.31;100.00;101936.31;5071937;28;20051;-86
2023/05/08 04:18:58;;;;;;;3.65;2.95;;;;;;;13.29;100.00;101936.28;5072585;28;20384;-87
2023/05/08 04:21:24;;;;;;;3.80;3.10;;;;;;;13.31;100.00;101941.50;5072945;28;20068;-85
2023/05/08 04:23:51;;;;;;;3.97;3.00;;;;;;;13.29;100.00;101939.78;5071028;28;20032;-85
2023/05/08 04:26:18;;;;;;;4.25;3.10;;;;;;;13.30;100.00;101948.44;5072857;28;20488;-85
2023/05/08 04:28:45;;;;;;;4.40;3.45;;;;;;;13.32;100.00;101953.66;5072791;28;20052;-87
2023/05/08 04:31:13;;;;;;;5.03;3.40;;;;;;;13.30;100.00;101951.06;5072295;28;20028;-87
2023/05/08 04:33:38;;;;;;;3.78;3.03;;;;;;;13.32;100.00;101953.66;5072776;28;20025;-87
2023/05/08 04:36:05;;;;;;;3.33;2.97;;;;;;;13.31;100.00;101949.34;5084813;28;20028;-86
2023/05/08 04:38:30;;;;;;;4.00;3.20;;;;;;;13.28;100.00;101951.09;5082670;28;20021;-87
2023/05/08 04:40:56;;;;;;;4.40;3.20;;;;;;;13.32;100.00;101959.75;5092910;28;20028;-86
2023/05/08 04:43:24;;;;;;;3.77;3.03;;;;;;;13.29;100.00;101941.50;5092686;28;20028;-86
2023/05/08 04:45:52;;;;;;;3.50;2.90;;;;;;;13.27;100.00;101944.13;5092106;28;20023;-87
2023/05/08 04:48:21;;;;;;;3.70;3.20;;;;;;;13.31;100.00;101952.78;5093085;28;20399;-87
2023/05/08 04:50:49;;;;;;;4.55;3.20;;;;;;;13.34;100.00;101952.78;5093138;28;20028;-87
2023/05/08 04:53:14;;;;;;;4.13;3.20;;;;;;;13.36;100.00;101951.03;5092296;28;20480;-86
2023/05/08 04:55:40;;;;;;;4.60;3.30;;;;;;;13.42;100.00;101963.16;5092703;28;20108;-87
2023/05/08 04:58:06;;;;;;;5.00;3.30;;;;;;;13.43;100.00;101968.34;5092408;28;20036;-87
2023/05/08 05:00:31;;;;;;;4.70;3.30;;;;;;;13.41;100.00;101959.69;5092067;28;20028;-87
2023/05/08 05:03:10;;;;;;;4.60;3.33;;;;;;;13.48;100.00;101970.91;5092539;28;20096;-87
2023/05/08 05:05:35;;;;;;;3.78;3.00;;;;;;;13.46;100.00;101962.25;5091791;28;20487;-86
2023/05/08 05:08:00;;;;;;;3.73;3.00;;;;;;;13.57;100.00;101972.59;5087597;28;20028;-87
2023/05/08 05:10:25;;;;;;;4.07;3.03;;;;;;;13.59;100.00;101976.91;5092586;28;20025;-86
2023/05/08 05:12:51;;;;;;;3.83;2.90;;;;;;;13.63;100.00;101982.09;5091952;28;20103;-86
2023/05/08 05:15:16;;;;;;;4.27;3.00;;;;;;;13.64;100.00;101987.28;5092750;28;20020;-91
2023/05/08 05:17:54;;;;;;;3.87;2.90;;;;;;;13.63;100.00;101985.56;5093263;28;20376;-91
2023/05/08 05:20:19;;;;;;;3.72;2.88;;;;;;;13.67;100.00;101992.47;5092413;28;20036;-90
2023/05/08 05:22:50;;;;;;;3.83;3.10;;;;;;;13.72;100.00;101993.31;5087959;28;20038;-91
2023/05/08 05:25:16;;;;;;;3.45;2.78;;;;;;;13.71;100.00;101996.81;5087647;28;20034;-91
2023/05/08 05:27:50;;;;;;;4.23;3.13;;;;;;;13.68;100.00;101988.16;5083965;28;20024;-87
2023/05/08 05:30:15;;;;;;;3.78;2.90;;;;;;;13.78;100.00;101995.00;5092915;28;20017;-86
2023/05/08 05:32:41;;;;;;;4.10;3.17;;;;;;;13.81;100.00;102004.53;5092378;28;20039;-85
2023/05/08 05:35:07;;;;;;;3.47;2.80;;;;;;;13.82;100.00;102006.25;5092226;28;20073;-88
2023/05/08 05:37:39;;;;;;;3.67;3.00;;;;;;;13.83;100.00;102008.84;5092246;28;20031;-87
2023/05/08 05:40:05;;;;;;;3.88;2.85;;;;;;;13.83;100.00;102008.00;5093069;28;20024;-87
2023/05/08 05:42:30;;;;;;;5.43;3.60;;;;;;;13.82;100.00;102006.25;5091553;28;20472;-88
2023/05/08 05:44:55;;;;;;;5.70;3.73;;;;;;;13.85;100.00;102008.81;5096798;28;20027;-88
2023/05/08 05:47:21;;;;;;;5.37;3.57;;;;;;;13.85;100.00;102009.69;5093273;28;20028;-86
2023/05/08 05:49:47;;;;;;;5.43;3.53;;;;;;;13.88;100.00;102011.41;5094299;28;20051;-86
2023/05/08 05:52:13;;;;;;;6.00;3.83;;;;;;;13.92;100.00;102015.72;5096674;28;20036;-86
2023/05/08 05:54:40;;;;;;;5.68;3.42;;;;;;;13.96;100.00;102019.16;5095183;28;20101;-86
2023/05/08 05:57:05;;;;;;;;;;;;;;;13.99;100.00;102019.97;5094643;28;20024;-87
2023/05/08 05:59:30;;;;;;;12.60;6.77;;;;;;;13.95;100.00;102014.81;5096015;28;19919;-88
2023/05/08 06:01:56;;;;;;;11.70;6.00;;;;;;;13.93;100.00;102017.44;5093063;28;20028;-88
2023/05/08 06:04:21;;;;;;;9.27;5.20;;;;;;;13.94;100.00;102018.31;5095595;28;20077;-86
2023/05/08 06:06:46;;;;;;;8.00;4.80;;;;;;;14.01;100.00;102019.97;5095991;28;20056;-88
2023/05/08 06:09:12;;;;;;;7.97;4.60;;;;;;;13.98;100.00;102005.19;5095541;28;20077;-88
2023/05/08 06:11:43;;;;;;;7.33;4.37;;;;;;;14.11;100.00;102020.72;5095331;28;20065;-88
2023/05/08 06:14:09;;;;;;;7.82;4.38;;;;;;;14.06;100.00;102007.72;5095799;28;20111;-88
2023/05/08 06:16:35;;;;;;;6.53;3.90;;;;;;;14.14;100.00;102007.66;5094351;28;20108;-89
2023/05/08 06:19:00;;;;;;;6.40;4.00;;;;;;;14.25;100.00;102017.94;5094149;28;20103;-87
2023/05/08 06:21:27;;;;;;;7.40;4.30;;;;;;;14.31;100.00;102021.34;5095156;28;20379;-86
2023/05/08 06:23:59;;;;;;;7.80;4.60;;;;;;;14.37;100.00;102020.41;5095065;28;20081;-88
2023/05/08 06:26:25;;;;;;;7.78;4.40;;;;;;;14.37;100.00;102004.75;5095675;28;20027;-87
2023/05/08 06:28:59;;;;;;;8.90;5.05;;;;;;;14.43;100.00;102004.69;5094011;28;20032;-87
2023/05/08 06:31:24;;;;;;;7.72;4.60;;;;;;;14.51;100.00;102007.22;5094490;28;20459;-88
2023/05/08 06:33:49;;;;;;;8.07;4.80;;;;;;;14.55;100.00;102014.09;5095181;28;20110;-88
2023/05/08 06:36:21;;;;;;;8.70;4.73;;;;;;;14.63;100.00;102022.72;5095582;28;20022;-88
2023/05/08 06:38:46;;;;;;;6.97;4.07;;;;;;;14.66;100.00;102027.03;5094551;28;20024;-88
2023/05/08 06:41:12;;;;;;;7.17;4.30;;;;;;;14.63;100.00;102016.59;5095099;28;20028;-86
2023/05/08 06:43:37;;;;;;;7.07;4.33;;;;;;;14.71;100.00;102033.06;5093328;28;20032;-88
2023/05/08 06:49:24;;;;;;;7.32;3.95;;;;;;;14.69;100.00;102016.56;5095591;28;20043;-92
2023/05/08 06:51:49;;;;;;;6.03;4.10;;;;;;;14.70;100.00;102023.50;5095704;28;20020;-91
2023/05/08 06:54:24;;;;;;;5.97;3.80;;;;;;;14.72;100.00;102039.19;5096081;28;20039;-91
2023/05/08 06:56:51;;;;;;;6.28;3.90;;;;;;;14.75;100.00;102042.59;5095863;28;20031;-91
2023/05/08 06:59:21;;;;;;;6.35;4.07;;;;;;;14.68;100.00;102027.91;5095121;28;20044;-92
2023/05/08 07:01:47;;;;;;;5.97;3.83;;;;;;;14.70;100.00;102028.72;5095147;28;20460;-92
2023/05/08 07:04:12;;;;;;;7.30;4.40;;;;;;;14.70;100.00;102036.56;5096515;28;20035;-92
2023/05/08 07:06:38;;;;;;;7.23;4.30;;;;;;;14.73;100.00;102033.91;5095061;28;20027;-92
2023/05/08 07:09:03;;;;;;;7.20;4.30;;;;;;;14.78;100.00;102053.03;5095620;28;20027;-91
2023/05/08 07:11:28;;;;;;;5.70;3.60;;;;;;;14.71;100.00;102040.06;5095273;28;20535;-92
2023/05/08 07:14:05;;;;;;;5.10;3.30;;;;;;;14.70;100.00;102039.19;5094879;28;20478;-92
2023/05/08 07:16:30;;;;;;;7.13;4.10;;;;;;;14.67;100.00;102040.09;5095731;28;20032;-91
2023/05/08 07:18:56;;;;;;;6.57;4.10;;;;;;;14.73;100.00;102043.53;5095915;28;20065;-91
2023/05/08 07:21:21;;;;;;;8.13;4.80;;;;;;;14.73;100.00;102047.00;5092755;28;20035;-91
2023/05/08 07:23:49;;;;;;;7.10;4.20;;;;;;;14.75;100.00;102047.00;5095320;28;20099;-91
2023/05/08 07:26:23;;;;;;;5.70;3.70;;;;;;;14.74;100.00;102042.63;5094885;28;20055;-91
2023/05/08 07:28:49;;;;;;;8.38;4.80;;;;;;;14.76;100.00;102044.34;5095407;28;20024;-91
2023/05/08 07:31:18;;;;;;;8.43;4.50;;;;;;;14.79;100.00;102053.88;5095271;28;20028;-90
2023/05/08 07:33:45;;;;;;;9.02;4.90;;;;;;;14.79;100.00;102054.75;5094251;28;20028;-91
2023/05/08 07:36:11;;;;;;;9.82;5.18;;;;;;;14.74;100.00;102046.09;5095133;28;20028;-91
2023/05/08 07:38:36;;;;;;;7.47;4.53;;;;;;;14.74;100.00;102046.09;5090422;28;20020;-91
2023/05/08 07:41:01;;;;;;;6.40;3.97;;;;;;;14.81;100.00;102052.13;5094628;28;20081;-91
2023/05/08 07:43:27;;;;;;;6.50;4.00;;;;;;;14.76;100.00;102038.22;5094915;28;20486;-92
2023/05/08 07:45:52;;;;;;;6.20;4.00;;;;;;;14.77;100.00;102033.00;5095054;28;20105;-91
2023/05/08 07:48:18;;;;;;;14.87;7.40;;;;;;;14.88;100.00;102042.44;5093831;28;20031;-91
2023/05/08 07:50:43;;;;;;;13.10;6.80;;;;;;;14.87;100.00;102033.72;5094687;28;20020;-91
2023/05/08 07:53:09;;;;;;;10.90;6.00;;;;;;;14.99;100.00;102027.47;5094784;28;20471;-91
2023/05/08 07:55:34;;;;;;;10.40;5.70;;;;;;;15.17;100.00;102044.63;5094333;28;20069;-91
2023/05/08 07:58:00;;;;;;;12.87;6.47;;;;;;;15.27;100.00;102038.38;5094321;28;20036;-91
2023/05/08 08:00:28;;;;;;;14.47;7.00;;;;;;;15.33;100.00;102037.41;5094575;28;20030;-91
2023/05/08 08:02:54;;;;;;;16.05;8.05;;;;;;;15.40;100.00;102038.16;5094099;28;20047;-91
2023/05/08 08:05:25;;;;;;;12.87;6.80;;;;;;;15.55;100.00;102043.13;5094431;28;20024;-90
2023/05/08 08:07:53;;;;;;;15.70;7.95;;;;;;;15.60;100.00;102040.44;5093275;28;20043;-91
2023/05/08 08:10:22;;;;;;;14.90;7.47;;;;;;;15.66;100.00;102035.09;5093824;28;20032;-91
2023/05/08 08:12:56;;;;;;;12.85;6.70;;;;;;;15.81;100.00;102030.50;5094086;28;20039;-90
2023/05/08 08:15:21;;;;;;;10.80;5.90;;;;;;;16.08;100.00;102044.84;5093316;28;20028;-90
2023/05/08 08:17:47;;;;;;;9.70;5.47;;;;;;;16.20;100.00;102036.75;5094245;28;20371;-90
2023/05/08 08:20:13;;;;;;;14.60;7.50;;;;;;;16.44;100.00;102047.59;5093836;28;20020;-90
2023/05/08 08:22:38;;;;;;;16.33;8.63;;;;;;;16.44;100.00;102031.88;5093237;28;20058;-90
2023/05/08 08:25:04;;;;;;;16.07;8.43;;;;;;;16.55;100.00;102044.78;5094182;28;20074;-90
2023/05/08 08:27:29;;;;;;;14.27;7.53;;;;;;;16.72;100.00;102054.06;5093902;28;20028;-89
2023/05/08 08:29:54;;;;;;;13.43;6.80;;;;;;;16.80;100.00;102045.09;5093851;28;20028;-90
2023/05/08 08:32:32;;;;;;;11.30;6.03;;;;;;;16.90;100.00;102034.41;5095338;28;20026;-89
2023/05/08 08:35:07;;;;;;;8.15;4.95;;;;;;;17.01;100.00;102042.91;5095014;28;20032;-90
2023/05/08 08:37:32;;;;;;;10.25;5.80;;;;;;;17.02;100.00;102022.81;5092779;28;20141;-90
2023/05/08 08:39:58;;;;;;;10.27;5.93;;;;;;;17.14;100.00;102025.16;5093825;28;20511;-90
2023/05/08 08:42:24;;;;;;;12.10;6.75;;;;;;;17.25;100.00;102033.63;5093397;28;20016;-89
2023/05/08 08:44:50;;;;;;;11.00;5.97;;;;;;;17.32;99.88;102036.06;5092792;28;20034;-89
2023/05/08 08:47:43;;;;;;;9.38;5.65;;;;;;;17.44;99.89;102030.53;5093395;28;20020;-89
2023/05/08 08:50:09;;;;;;;9.88;5.82;;;;;;;17.58;99.40;102038.03;5090598;28;20121;-89
2023/05/08 08:53:00;;;;;;;10.65;6.18;;;;;;;17.67;99.25;102036.94;5092261;28;20124;-89
2023/05/08 08:55:26;;;;;;;14.10;7.25;;;;;;;17.59;97.38;102019.66;5092905;28;20067;-89
2023/05/08 08:58:06;;;;;;;15.95;8.85;;;;;;;17.59;95.25;102027.53;5092227;28;20044;-88
2023/05/08 09:00:41;;;;;;;19.40;11.90;;;;;;;17.59;91.56;102030.16;5093201;28;20036;-89
2023/05/08 09:03:07;;;;;;;19.00;11.40;;;;;;;17.70;95.27;102044.75;5093079;28;20541;-88
2023/05/08 09:05:33;;;;;;;17.80;10.03;;;;;;;17.81;96.08;102045.34;5092032;28;20040;-88
2023/05/08 09:08:00;;;;;;;19.98;12.05;;;;;;;17.85;91.08;102043.47;5093148;28;20051;-88
2023/05/08 09:10:25;;;;;;;23.13;15.88;;;;;;;17.76;91.15;102034.06;5093219;28;20024;-88
2023/05/08 09:12:51;;;;;;;21.13;13.83;;;;;;;17.82;94.56;102051.44;5092416;28;20553;-88
2023/05/08 09:15:17;;;;;;;17.95;10.77;;;;;;;17.86;95.14;102040.81;5093085;28;20059;-88
2023/05/08 09:17:42;;;;;;;17.77;10.10;;;;;;;17.90;94.66;102050.34;5092619;28;20024;-88
2023/05/08 09:20:08;;;;;;;14.00;7.87;;;;;;;17.89;95.44;102045.97;5092381;28;20109;-87
2023/05/08 09:22:57;;;;;;;12.35;6.60;;;;;;;17.92;95.62;102055.53;5092173;28;20020;-86
2023/05/08 09:25:22;;;;;;;8.73;5.35;;;;;;;17.84;95.61;102049.63;5078603;28;20594;-86
2023/05/08 09:28:14;;;;;;;7.73;4.93;;;;;;;17.87;95.75;102047.78;5095972;28;20024;-86
2023/05/08 09:30:58;;;;;;;7.47;4.70;;;;;;;17.97;96.25;102051.06;5096429;28;20024;-86
2023/05/08 09:33:26;;;;;;;7.50;4.70;;;;;;;18.04;96.00;102042.09;5087669;28;20028;-86
2023/05/08 09:35:52;;;;;;;6.45;4.30;;;;;;;18.13;95.96;102033.13;5096541;28;20089;-85
2023/05/08 09:38:36;;;;;;;6.10;4.22;;;;;;;18.35;95.89;102050.88;5094952;28;20109;-85
2023/05/08 09:41:09;;;;;;;6.55;4.13;;;;;;;18.46;95.23;102053.22;5095614;28;20110;-87
2023/05/08 09:43:34;;;;;;;9.25;5.28;;;;;;;18.53;94.32;102037.19;5096056;28;20016;-87
2023/05/08 09:46:21;;;;;;;7.93;5.13;;;;;;;18.64;94.01;102047.41;5096442;28;20073;-86
2023/05/08 09:48:47;;;;;;;15.32;8.82;;;;;;;18.60;91.64;102043.13;5095569;28;20027;-87
2023/05/08 09:51:15;;;;;;;19.98;12.75;;;;;;;18.47;91.14;102044.41;5096256;28;20384;-87
2023/05/08 09:54:30;;;;;;;20.13;12.60;;;;;;;18.48;92.09;102046.13;5095828;28;20028;-85
2023/05/08 09:56:55;;;;;;;15.68;8.95;;;;;;;18.59;92.68;102045.81;5096003;28;20060;-87
2023/05/08 09:59:27;;;;;;;15.37;9.00;;;;;;;18.71;92.66;102053.34;5084532;28;20056;-86
2023/05/08 10:01:53;;;;;;;12.57;7.20;;;;;;;18.75;92.52;102048.84;5092137;28;20055;-86
2023/05/08 10:04:33;;;;;;;10.88;6.60;;;;;;;18.86;92.75;102046.75;5095932;28;20028;-87
2023/05/08 10:06:58;;;;;;;14.63;7.90;;;;;;;18.91;91.64;102055.38;5095792;28;20027;-86
2023/05/08 10:09:24;;;;;;;11.17;6.77;;;;;;;18.94;92.12;102054.44;5077226;28;20110;-86
2023/05/08 10:12:06;;;;;;;12.10;6.83;;;;;;;18.91;91.14;102052.75;5095921;28;20278;-86
2023/05/08 10:14:31;;;;;;;11.82;6.78;;;;;;;18.73;91.46;102055.91;5086693;28;20028;-86
2023/05/08 10:17:08;;;;;;;8.80;5.53;;;;;;;18.59;92.26;102038.78;5074737;28;20104;-86
2023/05/08 10:19:36;;;;;;;7.47;4.80;;;;;;;18.56;91.75;102056.41;5074049;28;20021;-85
2023/05/08 10:22:03;;;;;;;8.10;4.90;;;;;;;18.45;92.85;102056.75;5077436;28;20032;-86
2023/05/08 10:24:32;;;;;;;9.57;5.57;;;;;;;18.41;93.10;102057.72;5095401;28;20425;-86
2023/05/08 10:27:18;;;;;;;10.68;5.90;;;;;;;18.37;93.19;102060.44;5095490;28;20028;-86
2023/05/08 10:29:51;;;;;;;10.73;6.28;;;;;;;18.34;93.31;102051.78;5094266;28;20024;-86
2023/05/08 10:32:21;;;;;;;11.68;6.15;;;;;;;18.42;93.22;102062.94;5095534;28;20028;-87
2023/05/08 10:35:09;;;;;;;9.40;5.55;;;;;;;18.46;93.57;102056.69;5095034;28;20050;-86
2023/05/08 10:37:44;;;;;;;8.73;5.20;;;;;;;18.48;93.63;102060.16;5093913;28;20024;-86
2023/05/08 10:47:27;;;;;;;18.17;9.25;;;;;;;18.34;92.80;102060.56;5095462;28;20545;-86
2023/05/08 10:54:10;;;;;;;11.48;6.30;;;;;;;18.47;93.20;102052.28;5095120;28;20077;-86
2023/05/08 10:56:38;;;;;;;10.00;5.47;;;;;;;18.61;93.25;102051.91;5094546;28;20024;-86
2023/05/08 10:59:05;;;;;;;8.98;5.25;;;;;;;18.77;93.06;102041.78;5090848;28;20432;-85
2023/05/08 11:01:30;;;;;;;;;;;;;;;18.92;89.98;102051.81;5095231;28;20028;-86
2023/05/08 11:04:19;;;;;;;18.57;10.33;;;;;;;19.01;92.20;102037.53;5094780;28;19918;-86
2023/05/08 11:06:47;;;;;;;18.65;10.13;;;;;;;19.16;87.45;102040.59;5095064;28;20274;-86
2023/05/08 11:09:27;;;;;;;19.90;11.90;;;;;;;19.19;91.03;102036.09;5094848;28;20102;-86
2023/05/08 11:12:06;;;;;;;17.27;9.38;;;;;;;19.39;92.07;102034.56;5094197;28;20027;-86
2023/05/08 11:14:34;;;;;;;17.45;9.25;;;;;;;19.48;90.71;102034.25;5094910;28;20073;-86
2023/05/08 11:17:03;;;;;;;15.77;8.15;;;;;;;19.52;90.72;102029.75;5094641;28;20028;-86
2023/05/08 11:19:29;;;;;;;29.20;20.58;;;;;;;19.50;86.41;102027.16;5076692;28;20538;-86
2023/05/08 11:22:13;;;;;;;24.15;15.60;;;;;;;19.52;89.41;102032.41;5073863;28;20063;-83
2023/05/08 11:25:04;;;;;;;21.13;12.75;;;;;;;19.61;88.51;102021.53;5074073;28;20040;-83
2023/05/08 11:28:11;;;;;;;17.55;9.60;;;;;;;19.63;89.20;102018.84;5062538;28;20172;-84
2023/05/08 11:30:40;;;;;;;15.30;7.90;;;;;;;19.68;88.43;102016.91;5073856;28;20098;-84
2023/05/08 11:33:16;;;;;;;13.95;7.60;;;;;;;19.74;88.98;102021.97;5073213;28;20107;-84
2023/05/08 11:36:06;;;;;;;13.85;7.45;;;;;;;19.77;87.96;102016.59;5073811;28;20029;-85
2023/05/08 11:38:35;;;;;;;14.48;7.03;;;;;;;19.82;88.62;102014.63;5086144;28;20038;-84
2023/05/08 11:41:20;;;;;;;12.10;6.68;;;;;;;19.93;87.76;102013.44;5093080;28;20027;-85
2023/05/08 11:44:03;;;;;;;21.65;12.63;;;;;;;20.00;86.29;102015.78;5092754;28;20032;-84
2023/05/08 11:46:48;;;;;;;19.05;10.70;;;;;;;20.24;86.18;102015.78;5092735;28;20053;-83